メインページ
METAR-TAF:

METAR-TAF

空港 :

ミネアポリス, ミネソタ州, アメリカ合衆国

ミネアポリス・セントポール国際空港

緯度: 44-52-59N, 経度: 093-13-44W, 海抜: 256m

現時点の気象観測

当レポートは44分前の00:53(UTC)に作成
南東の風 7kt
気温 19°C
湿度 32%
気圧 1011 hPa
視程: 16.1km
高度19000ftの千切れ雲あり

METAR: KMSP 240053Z 14007KT 10SM BKN190 19/02 A2986 RMK AO2 SLP110 T01890017

時間: 20:37 (01:37 UTC)

予報

当レポートは2時間17分前の23:20(UTC)に作成
予報は24日の 00時(UTC)から 25日の 06時(UTC)まで有効
東/南東の風 5kt
視程: 10km
高度20000ftの千切れ雲あり
24日の 0600時(UTC)から
東/南東の風 5kt
視程: 10km
高度25000ftの雲は散在している
24日の 1400時(UTC)から
南/南東の風 9kt
視程: 10km
高度25000ftの千切れ雲あり
24日の 1600時(UTC)から
南/南東の風 15kt、最大28ktの突風を伴う
視程: 10km
高度20000ftの千切れ雲あり
25日の 0000時(UTC)から
の風 13kt
視程: 10km
高度8000ftの曇り
25日の 0300時(UTC)から
の風 12kt
視程: 10km
高度3500ftの千切れ雲あり
近辺でにわか雨

TAF: KMSP 232320Z 2400/2506 12005KT P6SM BKN200 FM240600 12005KT P6SM SCT250 FM241400 15009KT P6SM BKN250 FM241600 16015G28KT P6SM BKN200 FM250000 17013KT P6SM OVC080 FM250300 18012KT P6SM VCSH BKN035

4,000以上の空港の気象観測と天気予報(METAR報とTAF報)

利用可能な観測所は地図上に黄色い丸と赤い丸で示す。

丸の上にカーソルを重ねると観測所名を参照できる。

次にクリックすると気象観測と天気予報を参照できる。

マップの切り替え:黒色「×」印の緑ボタンをクリックして拡大、「-」印の緑ボタンをクリックして縮小、緑色の三角印をクリックして隣りの地図に切り替え


METAR-TAF: